Wichita, KS (67226)

4:23 PM CDT on October 20, 2014 (GMT -0500)
Teal Cove | Change Station
CLOSE
Current Station
Personal Weather Station
Location: Wichita, KS
Elevation: 1378 ft
Nearby Weather Stations

Elev 1378 ft 37.76 °N, 97.26 °W | Updated 29 seconds ago

Clear
Clear
77.0 °F
Feels Like 78 °F
N
0.0
Wind Variable Wind from NW
Gusts 1.0 mph

Today
High -- | Low -- °F
--% Chance of Precip.
Yesterday
High -- | Low -- °F
Precip. -- in
7:42 AM 6:44 PM
Waning Crescent, 9% visible
Pressure 30.01 in
Visibility 10.0 miles
Clouds Clear
Heat Index 78 °F
Dew Point 51 °F
Humidity 41%
Rainfall 0.00 in
Snow Depth Not available.
UV 3 out of 12
Pollen 3.30 out of 12
Air Quality Not available.
Flu Activity No Activity
METAR KAAO 202054Z AUTO 05005KT 10SM CLR 26/07 A3003 RMK AO2 SLP160 T02610067 56014

More Conditions Fewer Conditions

Pressure 30.01 in
Visibility 10.0 miles
Clouds Clear
Heat Index 78 °F
Dew Point 51 °F
Humidity 41%
Rainfall 0.00 in
Snow Depth Not available.
UV 3 out of 12
Pollen 3.30 out of 12
Air Quality Not available.
Flu Activity No Activity
METAR KAAO 202054Z AUTO 05005KT 10SM CLR 26/07 A3003 RMK AO2 SLP160 T02610067 56014

More Conditions Fewer Conditions

10-Day Weather Forecast

Almanac

Astronomy

Oct. 20, 2014 Rise Set
Actual Time 7:42 AM CDT 6:44 PM CDT
Civil Twilight 7:15 AM CDT 7:11 PM CDT
Nautical Twilight 6:44 AM CDT 7:41 PM CDT
Astronomical Twilight 6:14 AM CDT 8:12 PM CDT
Moon 4:34 AM CDT 5:05 PM CDT
Length of Visible Light 11h 55m
Length of Day
11h 02m
Waning Crescent, 9% of the Moon is Illuminated
Today
Waning Crescent
Oct 23
New
Oct 30
First Quarter
Nov 6
Full
Nov 14
Last Quarter

Today's Extremes

State Highs State Lows

Community

WunderPhotos

Upload Photos

1,763,522 photos uploaded!

WunderBlogs® & News

Nearby

Snow Depth

Station Depth Elevation
No new snow has been reported.

Earthquake Activity

City Distance Mag. Time & Date
Cushing, Oklahoma 126 miles 2.8 11:41 AM CDT
2014-10-20
Helena, Oklahoma 88 miles 3.0 10:35 AM CDT
2014-10-20
Cushing, Oklahoma 126 miles 2.5 10:20 AM CDT
2014-10-20
Anthony, Kansas 61 miles 3.1 9:25 AM CDT
2014-10-20
Minimum magnitude displayed is 2.5.

Coastal Water Temperatures

Place Temperature
No Stations Reporting

Nearby Weather Stations